EQX264 LFBO-LFMN
Flight info
| Callsign | EQX264 |
|---|---|
| Flight time | 0h 48m |
| Altitude | 19000 |
| Route | FINOT G393 FJR Y25 MTG G701 LACAZ Q302 ABLAK |
| Aircraft | A320/M-SDE3FGHIRWY/LB1 |
Departure
| Time | 2026-05-05 14:46 |
|---|---|
| Airport | Toulouse-Blagnac Airport (LFBO) |
Arrival
| Time | 2026-05-05 15:34 |
|---|---|
| Airport | Nice-Côte d'Azur Airport (LFMN) |
| Time | Latitude | Longitude | Altitude | Speed | Heading |
|---|---|---|---|---|---|
| 2026-05-05 14:03 | 43.61898 | 1.36155 | 504 ft | 0 kts | 274° |
| 2026-05-05 14:26 | 43.61898 | 1.36160 | 504 ft | 2 kts | 274° |
| 2026-05-05 14:26 | 43.61897 | 1.36183 | 504 ft | 2 kts | 274° |
| 2026-05-05 14:26 | 43.61896 | 1.36206 | 504 ft | 2 kts | 274° |
| 2026-05-05 14:26 | 43.61895 | 1.36229 | 504 ft | 2 kts | 274° |
| 2026-05-05 14:27 | 43.61892 | 1.36253 | 504 ft | 3 kts | 302° |
| 2026-05-05 14:27 | 43.61885 | 1.36265 | 504 ft | 0 kts | 316° |
| 2026-05-05 14:27 | 43.61883 | 1.36268 | 504 ft | 3 kts | 324° |
| 2026-05-05 14:27 | 43.61880 | 1.36273 | 504 ft | 2 kts | 340° |
| 2026-05-05 14:28 | 43.61864 | 1.36277 | 504 ft | 2 kts | 16° |
| 2026-05-05 14:28 | 43.61848 | 1.36268 | 504 ft | 2 kts | 32° |
| 2026-05-05 14:28 | 43.61835 | 1.36256 | 504 ft | 2 kts | 29° |
| 2026-05-05 14:28 | 43.61820 | 1.36248 | 504 ft | 2 kts | 19° |
| 2026-05-05 14:29 | 43.61804 | 1.36241 | 504 ft | 2 kts | 2° |
| 2026-05-05 14:29 | 43.61803 | 1.36240 | 504 ft | 0 kts | 356° |
| 2026-05-05 14:35 | 43.61804 | 1.36240 | 504 ft | 1 kts | 356° |
| 2026-05-05 14:36 | 43.61820 | 1.36241 | 504 ft | 5 kts | 5° |
| 2026-05-05 14:36 | 43.61870 | 1.36248 | 504 ft | 10 kts | 5° |
| 2026-05-05 14:36 | 43.61956 | 1.36258 | 504 ft | 15 kts | 5° |
| 2026-05-05 14:36 | 43.62078 | 1.36264 | 504 ft | 20 kts | 1° |
| 2026-05-05 14:37 | 43.62172 | 1.36361 | 504 ft | 19 kts | 92° |
| 2026-05-05 14:37 | 43.62172 | 1.36493 | 504 ft | 22 kts | 91° |
| 2026-05-05 14:37 | 43.62104 | 1.36686 | 505 ft | 26 kts | 141° |
| 2026-05-05 14:37 | 43.61947 | 1.36846 | 505 ft | 30 kts | 143° |
| 2026-05-05 14:38 | 43.61827 | 1.37022 | 506 ft | 3 kts | 76° |
| 2026-05-05 14:38 | 43.61827 | 1.37023 | 506 ft | 0 kts | 75° |
| 2026-05-05 14:39 | 43.61831 | 1.37041 | 506 ft | 5 kts | 73° |
| 2026-05-05 14:39 | 43.61856 | 1.37106 | 506 ft | 10 kts | 58° |
| 2026-05-05 14:39 | 43.61908 | 1.37203 | 506 ft | 15 kts | 52° |
| 2026-05-05 14:40 | 43.61968 | 1.37314 | 505 ft | 20 kts | 53° |
| 2026-05-05 14:40 | 43.62005 | 1.37384 | 504 ft | 20 kts | 53° |
| 2026-05-05 14:40 | 43.62083 | 1.37526 | 505 ft | 23 kts | 52° |
| 2026-05-05 14:40 | 43.62146 | 1.37704 | 505 ft | 19 kts | 115° |
| 2026-05-05 14:41 | 43.62126 | 1.37745 | 505 ft | 18 kts | 134° |
| 2026-05-05 14:41 | 43.62024 | 1.37853 | 505 ft | 20 kts | 136° |
| 2026-05-05 14:41 | 43.61901 | 1.37987 | 505 ft | 25 kts | 143° |
| 2026-05-05 14:41 | 43.61744 | 1.38142 | 504 ft | 30 kts | 145° |
| 2026-05-05 14:42 | 43.61637 | 1.38127 | 505 ft | 0 kts | 227° |
| 2026-05-05 14:42 | 43.61636 | 1.38126 | 505 ft | 0 kts | 227° |
| 2026-05-05 14:44 | 43.61621 | 1.38103 | 505 ft | 6 kts | 228° |
| 2026-05-05 14:44 | 43.61579 | 1.38038 | 504 ft | 12 kts | 227° |
| 2026-05-05 14:44 | 43.61577 | 1.38009 | 504 ft | 4 kts | 302° |
| 2026-05-05 14:44 | 43.61592 | 1.37987 | 503 ft | 7 kts | 320° |
| 2026-05-05 14:45 | 43.61596 | 1.37983 | 503 ft | 0 kts | 321° |
| 2026-05-05 14:45 | 43.61752 | 1.37819 | 504 ft | 73 kts | 323° |
| 2026-05-05 14:45 | 43.62365 | 1.37166 | 515 ft | 144 kts | 318° |
| 2026-05-05 14:45 | 43.63259 | 1.36243 | 903 ft | 174 kts | 321° |
| 2026-05-05 14:46 | 43.64355 | 1.35237 | 1456 ft | 206 kts | 324° |
| 2026-05-05 14:46 | 43.65283 | 1.34400 | 1920 ft | 228 kts | 325° |
| 2026-05-05 14:46 | 43.66607 | 1.33044 | 3006 ft | 243 kts | 318° |
| 2026-05-05 14:46 | 43.67918 | 1.31510 | 4336 ft | 250 kts | 317° |
| 2026-05-05 14:47 | 43.69373 | 1.30132 | 5571 ft | 263 kts | 338° |
| 2026-05-05 14:47 | 43.71238 | 1.29910 | 6514 ft | 280 kts | 8° |
| 2026-05-05 14:47 | 43.72993 | 1.31080 | 6839 ft | 286 kts | 41° |
| 2026-05-05 14:47 | 43.74047 | 1.33396 | 6975 ft | 289 kts | 75° |
| 2026-05-05 14:48 | 43.74064 | 1.36136 | 7006 ft | 288 kts | 104° |
| 2026-05-05 14:48 | 43.73783 | 1.37638 | 7008 ft | 288 kts | 106° |
| 2026-05-05 14:48 | 43.73317 | 1.40085 | 7018 ft | 289 kts | 106° |
| 2026-05-05 14:48 | 43.72796 | 1.42794 | 7848 ft | 292 kts | 107° |
| 2026-05-05 14:49 | 43.72278 | 1.45477 | 9189 ft | 293 kts | 107° |
| 2026-05-05 14:49 | 43.71852 | 1.48268 | 10266 ft | 306 kts | 98° |
| 2026-05-05 14:49 | 43.71747 | 1.51332 | 10817 ft | 332 kts | 91° |
| 2026-05-05 14:49 | 43.71858 | 1.54619 | 11469 ft | 351 kts | 87° |
| 2026-05-05 14:50 | 43.72072 | 1.58018 | 12413 ft | 358 kts | 86° |
| 2026-05-05 14:50 | 43.72306 | 1.61457 | 13404 ft | 363 kts | 86° |
| 2026-05-05 14:50 | 43.72516 | 1.64959 | 14336 ft | 368 kts | 89° |
| 2026-05-05 14:50 | 43.72504 | 1.68516 | 15209 ft | 371 kts | 94° |
| 2026-05-05 14:51 | 43.72425 | 1.72106 | 16071 ft | 376 kts | 95° |
| 2026-05-05 14:51 | 43.72326 | 1.75732 | 16923 ft | 380 kts | 95° |
| 2026-05-05 14:51 | 43.72215 | 1.79417 | 17775 ft | 385 kts | 95° |
| 2026-05-05 14:51 | 43.72097 | 1.83138 | 18530 ft | 391 kts | 95° |
| 2026-05-05 14:52 | 43.71981 | 1.86898 | 18819 ft | 392 kts | 95° |
| 2026-05-05 14:52 | 43.71869 | 1.90685 | 18918 ft | 401 kts | 95° |
| 2026-05-05 14:52 | 43.71748 | 1.94650 | 18940 ft | 422 kts | 95° |
| 2026-05-05 14:52 | 43.71623 | 1.98741 | 18940 ft | 428 kts | 95° |
| 2026-05-05 14:53 | 43.71543 | 2.02870 | 18938 ft | 431 kts | 91° |
| 2026-05-05 14:53 | 43.71799 | 2.07014 | 18944 ft | 433 kts | 86° |
| 2026-05-05 14:53 | 43.72114 | 2.11148 | 18945 ft | 433 kts | 86° |
| 2026-05-05 14:53 | 43.72422 | 2.15289 | 18944 ft | 433 kts | 86° |
| 2026-05-05 14:54 | 43.72728 | 2.19437 | 18946 ft | 433 kts | 86° |
| 2026-05-05 14:54 | 43.73029 | 2.23589 | 18947 ft | 434 kts | 86° |
| 2026-05-05 14:54 | 43.73327 | 2.27741 | 18947 ft | 434 kts | 86° |
| 2026-05-05 14:54 | 43.73621 | 2.31888 | 18942 ft | 433 kts | 87° |
| 2026-05-05 14:55 | 43.73913 | 2.36034 | 18936 ft | 433 kts | 87° |
| 2026-05-05 14:55 | 43.74199 | 2.40119 | 18934 ft | 433 kts | 87° |
| 2026-05-05 14:55 | 43.74491 | 2.44275 | 18929 ft | 433 kts | 87° |
| 2026-05-05 14:55 | 43.74784 | 2.48415 | 18929 ft | 434 kts | 87° |
| 2026-05-05 14:56 | 43.75076 | 2.52576 | 18926 ft | 434 kts | 87° |
| 2026-05-05 14:56 | 43.75364 | 2.56733 | 18921 ft | 434 kts | 87° |
| 2026-05-05 14:56 | 43.75650 | 2.60881 | 18920 ft | 434 kts | 87° |
| 2026-05-05 14:56 | 43.75938 | 2.65042 | 18916 ft | 435 kts | 87° |
| 2026-05-05 14:57 | 43.76225 | 2.69210 | 18918 ft | 435 kts | 87° |
| 2026-05-05 14:57 | 43.76510 | 2.73375 | 18909 ft | 435 kts | 87° |
| 2026-05-05 14:57 | 43.76791 | 2.77548 | 18911 ft | 436 kts | 87° |
| 2026-05-05 14:57 | 43.77070 | 2.81721 | 18907 ft | 436 kts | 87° |
| 2026-05-05 14:58 | 43.77199 | 2.85911 | 18902 ft | 434 kts | 95° |
| 2026-05-05 14:58 | 43.76861 | 2.90039 | 18899 ft | 431 kts | 104° |
| 2026-05-05 14:58 | 43.76176 | 2.94073 | 18898 ft | 431 kts | 107° |
| 2026-05-05 14:58 | 43.75470 | 2.98107 | 18901 ft | 431 kts | 107° |
| 2026-05-05 14:59 | 43.74767 | 3.02138 | 18896 ft | 432 kts | 107° |
| 2026-05-05 14:59 | 43.74076 | 3.06126 | 18896 ft | 432 kts | 107° |
| 2026-05-05 14:59 | 43.73365 | 3.10219 | 18892 ft | 433 kts | 107° |
| 2026-05-05 14:59 | 43.72659 | 3.14267 | 18894 ft | 433 kts | 107° |
| 2026-05-05 15:00 | 43.71961 | 3.18265 | 18897 ft | 434 kts | 107° |
| 2026-05-05 15:00 | 43.71481 | 3.21008 | 18898 ft | 434 kts | 107° |
| 2026-05-05 15:00 | 43.70538 | 3.26387 | 18897 ft | 435 kts | 107° |
| 2026-05-05 15:00 | 43.69823 | 3.30444 | 18894 ft | 435 kts | 107° |
| 2026-05-05 15:01 | 43.69103 | 3.34505 | 18893 ft | 435 kts | 107° |
| 2026-05-05 15:01 | 43.68380 | 3.38569 | 18891 ft | 436 kts | 107° |
| 2026-05-05 15:01 | 43.67652 | 3.42638 | 18893 ft | 436 kts | 108° |
| 2026-05-05 15:01 | 43.66922 | 3.46713 | 18896 ft | 437 kts | 108° |
| 2026-05-05 15:02 | 43.66228 | 3.50579 | 18901 ft | 437 kts | 108° |
| 2026-05-05 15:02 | 43.65513 | 3.54571 | 18903 ft | 437 kts | 108° |
| 2026-05-05 15:02 | 43.64787 | 3.58652 | 18902 ft | 437 kts | 107° |
| 2026-05-05 15:02 | 43.64068 | 3.62722 | 18898 ft | 437 kts | 107° |
| 2026-05-05 15:03 | 43.63345 | 3.66809 | 18900 ft | 438 kts | 108° |
| 2026-05-05 15:03 | 43.62622 | 3.70886 | 18908 ft | 438 kts | 108° |
| 2026-05-05 15:03 | 43.61894 | 3.74965 | 18907 ft | 437 kts | 108° |
| 2026-05-05 15:03 | 43.61164 | 3.79038 | 18908 ft | 438 kts | 108° |
| 2026-05-05 15:04 | 43.60433 | 3.83116 | 18915 ft | 438 kts | 108° |
| 2026-05-05 15:04 | 43.59698 | 3.87191 | 18914 ft | 438 kts | 108° |
| 2026-05-05 15:04 | 43.58961 | 3.91263 | 18915 ft | 438 kts | 108° |
| 2026-05-05 15:04 | 43.58206 | 3.95329 | 18909 ft | 437 kts | 110° |
| 2026-05-05 15:05 | 43.55760 | 4.02877 | 18902 ft | 430 kts | 123° |
| 2026-05-05 15:05 | 43.54351 | 4.06516 | 18909 ft | 430 kts | 123° |
| 2026-05-05 15:05 | 43.52944 | 4.10153 | 18912 ft | 430 kts | 123° |
| 2026-05-05 15:06 | 43.51539 | 4.13788 | 18918 ft | 430 kts | 123° |
| 2026-05-05 15:06 | 43.50134 | 4.17429 | 18913 ft | 430 kts | 123° |
| 2026-05-05 15:06 | 43.48731 | 4.21064 | 18909 ft | 430 kts | 123° |
| 2026-05-05 15:06 | 43.47323 | 4.24704 | 18911 ft | 430 kts | 123° |
| 2026-05-05 15:07 | 43.45915 | 4.28335 | 18908 ft | 430 kts | 123° |
| 2026-05-05 15:07 | 43.44521 | 4.31923 | 18905 ft | 430 kts | 123° |
| 2026-05-05 15:07 | 43.43107 | 4.35549 | 18907 ft | 430 kts | 123° |
| 2026-05-05 15:07 | 43.41671 | 4.39224 | 18904 ft | 430 kts | 123° |
| 2026-05-05 15:08 | 43.40271 | 4.42805 | 18909 ft | 430 kts | 123° |
| 2026-05-05 15:08 | 43.38855 | 4.46432 | 18911 ft | 430 kts | 123° |
| 2026-05-05 15:08 | 43.37436 | 4.50056 | 18910 ft | 430 kts | 123° |
| 2026-05-05 15:08 | 43.36010 | 4.53666 | 18915 ft | 430 kts | 124° |
| 2026-05-05 15:09 | 43.34574 | 4.57274 | 18916 ft | 430 kts | 124° |
| 2026-05-05 15:09 | 43.33134 | 4.60879 | 18915 ft | 430 kts | 124° |
| 2026-05-05 15:09 | 43.31698 | 4.64482 | 18914 ft | 431 kts | 123° |
| 2026-05-05 15:09 | 43.30550 | 4.68323 | 18913 ft | 439 kts | 111° |
| 2026-05-05 15:10 | 43.29958 | 4.72458 | 18912 ft | 446 kts | 99° |
| 2026-05-05 15:10 | 43.29978 | 4.76732 | 18913 ft | 452 kts | 87° |
| 2026-05-05 15:10 | 43.30637 | 4.80979 | 18909 ft | 458 kts | 75° |
| 2026-05-05 15:10 | 43.31792 | 4.85059 | 18911 ft | 459 kts | 70° |
| 2026-05-05 15:11 | 43.32988 | 4.89133 | 18909 ft | 459 kts | 70° |
| 2026-05-05 15:11 | 43.34171 | 4.93199 | 18909 ft | 459 kts | 71° |
| 2026-05-05 15:11 | 43.35352 | 4.97289 | 18906 ft | 460 kts | 71° |
| 2026-05-05 15:11 | 43.36526 | 5.01365 | 18903 ft | 460 kts | 71° |
| 2026-05-05 15:12 | 43.37700 | 5.05451 | 18904 ft | 460 kts | 71° |
| 2026-05-05 15:12 | 43.38969 | 5.09503 | 18899 ft | 462 kts | 65° |
| 2026-05-05 15:12 | 43.40516 | 5.13371 | 18901 ft | 462 kts | 63° |
| 2026-05-05 15:12 | 43.42074 | 5.17238 | 18902 ft | 463 kts | 63° |
| 2026-05-05 15:13 | 43.43609 | 5.21127 | 18904 ft | 462 kts | 65° |
| 2026-05-05 15:13 | 43.44858 | 5.25201 | 18905 ft | 461 kts | 71° |
| 2026-05-05 15:13 | 43.46023 | 5.29303 | 18909 ft | 461 kts | 71° |
| 2026-05-05 15:13 | 43.47188 | 5.33404 | 18905 ft | 461 kts | 71° |
| 2026-05-05 15:14 | 43.48355 | 5.37519 | 18908 ft | 461 kts | 71° |
| 2026-05-05 15:14 | 43.49518 | 5.41630 | 18905 ft | 461 kts | 71° |
| 2026-05-05 15:14 | 43.50685 | 5.45755 | 18909 ft | 461 kts | 71° |
| 2026-05-05 15:14 | 43.51833 | 5.49824 | 18908 ft | 462 kts | 71° |
| 2026-05-05 15:15 | 43.53011 | 5.54000 | 18910 ft | 462 kts | 71° |
| 2026-05-05 15:15 | 43.54167 | 5.58114 | 18914 ft | 462 kts | 71° |
| 2026-05-05 15:15 | 43.55326 | 5.62254 | 18907 ft | 461 kts | 71° |
| 2026-05-05 15:15 | 43.56379 | 5.66414 | 18905 ft | 459 kts | 77° |
| 2026-05-05 15:16 | 43.56992 | 5.70668 | 18904 ft | 456 kts | 86° |
| 2026-05-05 15:16 | 43.57285 | 5.75004 | 18899 ft | 455 kts | 88° |
| 2026-05-05 15:16 | 43.57570 | 5.79351 | 18903 ft | 454 kts | 88° |
| 2026-05-05 15:16 | 43.57855 | 5.83599 | 18716 ft | 436 kts | 88° |
| 2026-05-05 15:17 | 43.58134 | 5.87711 | 18477 ft | 427 kts | 88° |
| 2026-05-05 15:17 | 43.58404 | 5.91770 | 18242 ft | 423 kts | 89° |
| 2026-05-05 15:17 | 43.58667 | 5.95804 | 17982 ft | 422 kts | 88° |
| 2026-05-05 15:17 | 43.58927 | 5.99826 | 17707 ft | 419 kts | 88° |
| 2026-05-05 15:18 | 43.59186 | 6.03813 | 17113 ft | 416 kts | 88° |
| 2026-05-05 15:18 | 43.59324 | 6.07769 | 16344 ft | 409 kts | 96° |
| 2026-05-05 15:18 | 43.58998 | 6.11564 | 15591 ft | 386 kts | 106° |
| 2026-05-05 15:18 | 43.58235 | 6.15080 | 14900 ft | 383 kts | 115° |
| 2026-05-05 15:19 | 43.57278 | 6.18505 | 14213 ft | 382 kts | 115° |
| 2026-05-05 15:19 | 43.56335 | 6.21917 | 13496 ft | 378 kts | 115° |
| 2026-05-05 15:19 | 43.55408 | 6.25292 | 12771 ft | 374 kts | 115° |
| 2026-05-05 15:19 | 43.54511 | 6.28571 | 12234 ft | 352 kts | 114° |
| 2026-05-05 15:20 | 43.53667 | 6.31653 | 12061 ft | 336 kts | 114° |
| 2026-05-05 15:20 | 43.52857 | 6.34590 | 11871 ft | 318 kts | 114° |
| 2026-05-05 15:20 | 43.52089 | 6.37366 | 11564 ft | 306 kts | 115° |
| 2026-05-05 15:20 | 43.51327 | 6.40105 | 11312 ft | 306 kts | 114° |
| 2026-05-05 15:21 | 43.50488 | 6.42784 | 11066 ft | 302 kts | 123° |
| 2026-05-05 15:21 | 43.49263 | 6.45084 | 10821 ft | 295 kts | 137° |
| 2026-05-05 15:21 | 43.47845 | 6.47110 | 10574 ft | 294 kts | 137° |
| 2026-05-05 15:21 | 43.46430 | 6.49138 | 10330 ft | 293 kts | 137° |
| 2026-05-05 15:22 | 43.45497 | 6.50478 | 10169 ft | 293 kts | 137° |
| 2026-05-05 15:22 | 43.44091 | 6.52501 | 9925 ft | 292 kts | 136° |
| 2026-05-05 15:22 | 43.42690 | 6.54520 | 9727 ft | 292 kts | 137° |
| 2026-05-05 15:22 | 43.41293 | 6.56538 | 9366 ft | 290 kts | 136° |
| 2026-05-05 15:23 | 43.39901 | 6.58547 | 8989 ft | 289 kts | 136° |
| 2026-05-05 15:23 | 43.38514 | 6.60544 | 8600 ft | 289 kts | 136° |
| 2026-05-05 15:23 | 43.37139 | 6.62557 | 8215 ft | 289 kts | 133° |
| 2026-05-05 15:23 | 43.36156 | 6.64961 | 7938 ft | 290 kts | 109° |
| 2026-05-05 15:24 | 43.35931 | 6.67713 | 7815 ft | 294 kts | 85° |
| 2026-05-05 15:24 | 43.36519 | 6.70387 | 7688 ft | 295 kts | 63° |
| 2026-05-05 15:24 | 43.37477 | 6.72875 | 7580 ft | 294 kts | 62° |
| 2026-05-05 15:24 | 43.38440 | 6.75352 | 7338 ft | 295 kts | 62° |
| 2026-05-05 15:25 | 43.39411 | 6.77853 | 6854 ft | 294 kts | 62° |
| 2026-05-05 15:25 | 43.40361 | 6.80308 | 6204 ft | 289 kts | 62° |
| 2026-05-05 15:25 | 43.41281 | 6.82694 | 5878 ft | 272 kts | 62° |
| 2026-05-05 15:25 | 43.42128 | 6.84895 | 5816 ft | 249 kts | 63° |
| 2026-05-05 15:26 | 43.42905 | 6.86918 | 5756 ft | 232 kts | 63° |
| 2026-05-05 15:26 | 43.43655 | 6.88878 | 5702 ft | 230 kts | 62° |
| 2026-05-05 15:26 | 43.44398 | 6.90816 | 5609 ft | 229 kts | 63° |
| 2026-05-05 15:26 | 43.45147 | 6.92746 | 5515 ft | 228 kts | 59° |
| 2026-05-05 15:27 | 43.46177 | 6.94416 | 5261 ft | 231 kts | 45° |
| 2026-05-05 15:27 | 43.47298 | 6.95953 | 4933 ft | 223 kts | 44° |
| 2026-05-05 15:27 | 43.48378 | 6.97418 | 4645 ft | 214 kts | 45° |
| 2026-05-05 15:27 | 43.49421 | 6.98834 | 4344 ft | 206 kts | 45° |
| 2026-05-05 15:28 | 43.50427 | 7.00201 | 4072 ft | 200 kts | 45° |
| 2026-05-05 15:28 | 43.51364 | 7.01478 | 4002 ft | 186 kts | 45° |
| 2026-05-05 15:28 | 43.52255 | 7.02696 | 3773 ft | 178 kts | 46° |
| 2026-05-05 15:28 | 43.53124 | 7.03883 | 3425 ft | 171 kts | 46° |
| 2026-05-05 15:29 | 43.53935 | 7.04991 | 3178 ft | 156 kts | 46° |
| 2026-05-05 15:29 | 43.54670 | 7.05996 | 2945 ft | 142 kts | 46° |
| 2026-05-05 15:29 | 43.55346 | 7.06920 | 2764 ft | 133 kts | 46° |
| 2026-05-05 15:29 | 43.55613 | 7.07286 | 2692 ft | 132 kts | 46° |
| 2026-05-05 15:30 | 43.56277 | 7.08191 | 2517 ft | 131 kts | 46° |
| 2026-05-05 15:30 | 43.56915 | 7.09066 | 2344 ft | 128 kts | 46° |
| 2026-05-05 15:30 | 43.57547 | 7.09931 | 2169 ft | 127 kts | 46° |
| 2026-05-05 15:30 | 43.58177 | 7.10795 | 2002 ft | 127 kts | 46° |
| 2026-05-05 15:31 | 43.58810 | 7.11662 | 1826 ft | 126 kts | 46° |
| 2026-05-05 15:31 | 43.59418 | 7.12495 | 1656 ft | 125 kts | 46° |
| 2026-05-05 15:31 | 43.60032 | 7.13337 | 1477 ft | 123 kts | 47° |
| 2026-05-05 15:31 | 43.60630 | 7.14156 | 1316 ft | 119 kts | 48° |
| 2026-05-05 15:32 | 43.61216 | 7.14960 | 1146 ft | 117 kts | 48° |
| 2026-05-05 15:32 | 43.61788 | 7.15744 | 983 ft | 118 kts | 48° |
| 2026-05-05 15:32 | 43.62361 | 7.16529 | 827 ft | 115 kts | 48° |
| 2026-05-05 15:32 | 43.62872 | 7.17231 | 688 ft | 114 kts | 48° |
| 2026-05-05 15:33 | 43.63273 | 7.17782 | 586 ft | 112 kts | 47° |
| 2026-05-05 15:33 | 43.63830 | 7.18547 | 443 ft | 113 kts | 46° |
| 2026-05-05 15:33 | 43.64393 | 7.19321 | 302 ft | 113 kts | 48° |
| 2026-05-05 15:33 | 43.64949 | 7.20086 | 152 ft | 112 kts | 50° |
| 2026-05-05 15:34 | 43.65497 | 7.20859 | 36 ft | 110 kts | 50° |
| 2026-05-05 15:34 | 43.65940 | 7.21490 | 22 ft | 69 kts | 41° |
| 2026-05-05 15:34 | 43.66169 | 7.21774 | 23 ft | 19 kts | 43° |
| 2026-05-05 15:34 | 43.66257 | 7.21891 | 23 ft | 20 kts | 45° |
| 2026-05-05 15:35 | 43.66353 | 7.21989 | 24 ft | 22 kts | 19° |
| 2026-05-05 15:35 | 43.66487 | 7.22051 | 23 ft | 26 kts | 15° |
| 2026-05-05 15:35 | 43.66534 | 7.22041 | 24 ft | 0 kts | 327° |
| 2026-05-05 15:38 | 43.66543 | 7.22033 | 23 ft | 4 kts | 327° |
| 2026-05-05 15:38 | 43.66579 | 7.21992 | 22 ft | 9 kts | 319° |
| 2026-05-05 15:38 | 43.66636 | 7.21910 | 22 ft | 14 kts | 303° |
| 2026-05-05 15:39 | 43.66589 | 7.21785 | 23 ft | 18 kts | 223° |
| 2026-05-05 15:39 | 43.66542 | 7.21725 | 22 ft | 1 kts | 223° |
| 2026-05-05 15:39 | 43.66537 | 7.21718 | 22 ft | 0 kts | 222° |
| 2026-05-05 15:40 | 43.66534 | 7.21714 | 22 ft | 3 kts | 222° |
| 2026-05-05 15:41 | 43.66503 | 7.21704 | 22 ft | 6 kts | 154° |
| 2026-05-05 15:41 | 43.66488 | 7.21722 | 24 ft | 2 kts | 138° |
| 2026-05-05 15:41 | 43.66482 | 7.21729 | 23 ft | 0 kts | 138° |